Time;durP1;ratioP1;P1;durP2;ratioP2;P2;SDS_P1;SDS_P2;PMS_P1;PMS_P2;Temp;Humidity;BMP_temperature;BMP_pressure;BME280_temperature;BME280_humidity;BME280_pressure;Samples;Min_cycle;Max_cycle;Signal;HPM_P1;HPM_P2
2023/06/02 00:02:15;;;;;;;11.65;6.30;;;12.80;79.50;;;;;;4945159;28;88291;-75
2023/06/02 00:04:40;;;;;;;10.23;6.07;;;12.80;79.00;;;;;;4945087;28;88806;-75
2023/06/02 00:07:07;;;;;;;13.25;5.85;;;12.80;79.30;;;;;;4946319;28;87891;-75
2023/06/02 00:09:40;;;;;;;8.77;5.75;;;12.80;79.20;;;;;;4944700;28;87350;-75
2023/06/02 00:12:08;;;;;;;12.05;5.85;;;12.80;78.80;;;;;;4946170;28;89521;-75
2023/06/02 00:14:34;;;;;;;12.90;5.65;;;12.80;78.90;;;;;;4946007;28;89621;-76
2023/06/02 00:17:03;;;;;;;8.30;4.78;;;12.90;78.90;;;;;;4945005;28;87653;-75
2023/06/02 00:19:30;;;;;;;11.85;5.00;;;12.80;77.90;;;;;;4944401;28;88036;-75
2023/06/02 00:22:02;;;;;;;10.23;5.20;;;12.80;78.40;;;;;;4947129;28;87816;-75
2023/06/02 00:24:27;;;;;;;7.88;4.75;;;12.70;78.30;;;;;;4945229;28;87693;-75
2023/06/02 00:26:53;;;;;;;9.60;4.55;;;12.70;78.00;;;;;;4944418;28;87471;-75
2023/06/02 00:29:19;;;;;;;8.93;4.57;;;12.70;77.80;;;;;;4946946;28;87118;-75
2023/06/02 00:31:44;;;;;;;10.15;5.35;;;12.70;77.70;;;;;;4947403;28;88475;-74
2023/06/02 00:34:10;;;;;;;8.38;5.15;;;12.60;78.20;;;;;;4946443;28;87921;-74
2023/06/02 00:36:36;;;;;;;8.07;5.18;;;12.60;78.20;;;;;;4943775;28;88654;-75
2023/06/02 00:39:02;;;;;;;9.40;5.07;;;12.60;78.00;;;;;;4943916;28;87901;-75
2023/06/02 00:41:28;;;;;;;11.00;5.20;;;12.60;78.20;;;;;;4945517;28;88045;-75
2023/06/02 00:43:53;;;;;;;12.50;5.35;;;12.60;78.20;;;;;;4945518;28;87716;-76
2023/06/02 00:46:19;;;;;;;8.15;4.53;;;12.60;78.10;;;;;;4946803;28;88859;-75
2023/06/02 00:48:50;;;;;;;6.20;4.68;;;12.60;78.80;;;;;;4946578;28;88120;-75
2023/06/02 00:51:16;;;;;;;11.30;5.95;;;12.60;78.50;;;;;;4945589;28;88498;-76
2023/06/02 00:53:44;;;;;;;8.73;4.88;;;12.70;78.50;;;;;;4943622;28;88358;-75
2023/06/02 00:56:15;;;;;;;10.18;5.18;;;12.70;78.60;;;;;;4943759;28;87250;-75
2023/06/02 00:58:45;;;;;;;9.00;5.32;;;12.70;78.10;;;;;;4943469;28;87765;-75
2023/06/02 01:01:12;;;;;;;10.00;5.25;;;12.70;78.70;;;;;;4943177;28;90936;-75
2023/06/02 01:03:43;;;;;;;9.23;5.53;;;12.70;79.00;;;;;;4942228;28;89666;-75
2023/06/02 01:06:11;;;;;;;10.55;5.15;;;12.70;78.40;;;;;;4944865;28;87889;-75
2023/06/02 01:08:39;;;;;;;11.80;5.43;;;12.70;77.60;;;;;;4946518;28;88017;-74
2023/06/02 01:11:06;;;;;;;11.10;5.30;;;12.70;78.20;;;;;;4944419;28;88577;-75
2023/06/02 01:13:31;;;;;;;13.80;5.80;;;12.70;78.10;;;;;;4946338;28;88005;-75
2023/06/02 01:15:57;;;;;;;10.98;5.18;;;12.80;78.10;;;;;;4945634;28;88186;-74
2023/06/02 01:18:25;;;;;;;9.65;4.93;;;12.80;78.00;;;;;;4946007;28;87336;-75
2023/06/02 01:20:57;;;;;;;11.32;5.63;;;12.80;78.20;;;;;;4945764;28;89244;-75
2023/06/02 01:23:33;;;;;;;9.30;5.55;;;12.90;78.00;;;;;;4944773;28;88478;-74
2023/06/02 01:26:00;;;;;;;9.65;5.22;;;12.80;78.10;;;;;;4942433;28;88459;-75
2023/06/02 01:28:26;;;;;;;7.88;5.50;;;12.80;77.60;;;;;;4943646;28;87940;-75
2023/06/02 01:31:15;;;;;;;9.90;5.05;;;12.80;77.80;;;;;;4945236;28;88624;-75
2023/06/02 01:33:57;;;;;;;10.02;4.90;;;12.80;77.90;;;;;;4934087;28;88234;-75
2023/06/02 01:36:23;;;;;;;11.40;5.50;;;12.90;78.30;;;;;;4946084;28;87678;-75
2023/06/02 01:38:51;;;;;;;9.85;5.13;;;12.90;78.10;;;;;;4942903;28;87580;-75
2023/06/02 01:41:19;;;;;;;9.15;4.75;;;12.90;77.60;;;;;;4945468;28;87527;-75
2023/06/02 01:43:47;;;;;;;12.05;5.70;;;12.80;78.30;;;;;;4945144;28;88484;-75
2023/06/02 01:46:13;;;;;;;7.28;4.30;;;12.90;78.80;;;;;;4945119;28;87693;-75
2023/06/02 01:48:42;;;;;;;7.53;5.03;;;12.90;78.50;;;;;;4943102;28;87469;-75
2023/06/02 01:51:07;;;;;;;8.60;4.38;;;12.90;79.00;;;;;;4943296;28;89127;-75
2023/06/02 01:53:33;;;;;;;9.32;4.10;;;12.90;78.40;;;;;;4943494;28;89198;-75
2023/06/02 01:55:58;;;;;;;6.75;3.72;;;12.80;78.80;;;;;;4945744;28;94832;-74
2023/06/02 01:58:25;;;;;;;12.13;4.47;;;12.90;78.60;;;;;;4927610;28;89353;-74
2023/06/02 02:00:50;;;;;;;7.47;3.67;;;12.80;78.60;;;;;;4944703;28;88764;-75
2023/06/02 02:03:17;;;;;;;11.07;4.70;;;12.80;78.00;;;;;;4942810;28;87939;-75
2023/06/02 02:05:43;;;;;;;5.43;3.67;;;12.80;78.20;;;;;;4944696;28;87680;-75
2023/06/02 02:08:12;;;;;;;6.50;4.07;;;12.80;78.60;;;;;;4943744;28;87422;-75
2023/06/02 02:10:37;;;;;;;9.55;3.83;;;12.80;78.50;;;;;;4943924;28;88803;-75
2023/06/02 02:13:03;;;;;;;10.18;4.18;;;12.80;78.40;;;;;;4945144;28;88056;-75
2023/06/02 02:15:28;;;;;;;8.38;4.10;;;12.70;78.90;;;;;;4942938;28;88888;-74
2023/06/02 02:17:56;;;;;;;12.35;3.65;;;12.70;78.70;;;;;;4943260;28;87599;-75
2023/06/02 02:20:23;;;;;;;8.95;4.20;;;12.80;79.30;;;;;;4943594;28;88299;-76
2023/06/02 02:22:49;;;;;;;9.70;4.15;;;12.80;79.00;;;;;;4942530;28;88293;-75
2023/06/02 02:25:15;;;;;;;7.20;4.40;;;12.80;78.40;;;;;;4945739;28;87687;-75
2023/06/02 02:27:40;;;;;;;8.38;4.22;;;12.70;77.50;;;;;;4942056;28;87898;-74
2023/06/02 02:30:07;;;;;;;10.57;4.38;;;12.70;77.70;;;;;;4942995;28;88678;-75
2023/06/02 02:32:35;;;;;;;12.57;4.20;;;12.60;77.60;;;;;;4944273;28;89149;-75
2023/06/02 02:35:02;;;;;;;10.48;3.90;;;12.60;77.50;;;;;;4943475;28;87838;-74
2023/06/02 02:37:28;;;;;;;12.00;3.60;;;12.60;77.50;;;;;;4941394;28;87985;-75
2023/06/02 02:39:54;;;;;;;11.07;3.92;;;12.60;78.00;;;;;;4943607;28;89607;-75
2023/06/02 02:42:20;;;;;;;8.95;4.05;;;12.60;76.80;;;;;;4943780;28;89512;-74
2023/06/02 02:44:45;;;;;;;10.13;4.70;;;12.60;77.20;;;;;;4942981;28;88193;-75
2023/06/02 02:47:12;;;;;;;7.47;3.72;;;12.50;76.90;;;;;;4942642;28;87561;-75
2023/06/02 02:49:38;;;;;;;7.18;3.63;;;12.40;77.30;;;;;;4943660;28;88527;-75
2023/06/02 02:52:04;;;;;;;10.02;3.83;;;12.40;76.60;;;;;;4928258;28;90693;-75
2023/06/02 02:54:30;;;;;;;10.15;3.97;;;12.30;77.00;;;;;;4941929;28;87903;-75
2023/06/02 02:56:55;;;;;;;8.27;3.88;;;12.30;76.90;;;;;;4942887;28;87951;-75
2023/06/02 02:59:21;;;;;;;8.50;3.65;;;12.30;77.20;;;;;;4941766;28;88639;-75
2023/06/02 03:01:47;;;;;;;10.95;3.33;;;12.30;77.30;;;;;;4943143;28;87722;-75
2023/06/02 03:04:21;;;;;;;12.55;4.22;;;12.20;76.90;;;;;;4941614;28;88828;-75
2023/06/02 03:06:50;;;;;;;10.27;3.97;;;12.20;77.10;;;;;;4942417;28;87615;-75
2023/06/02 03:09:16;;;;;;;11.32;4.07;;;12.20;78.10;;;;;;4942434;28;88600;-75
2023/06/02 03:11:43;;;;;;;14.25;4.70;;;12.20;77.70;;;;;;4941192;28;88627;-75
2023/06/02 03:14:09;;;;;;;9.48;4.50;;;12.10;77.20;;;;;;4943720;28;87234;-75
2023/06/02 03:16:38;;;;;;;9.40;4.30;;;12.10;77.40;;;;;;4944909;28;87365;-75
2023/06/02 03:19:05;;;;;;;12.48;4.18;;;12.10;77.80;;;;;;4947775;28;88381;-75
2023/06/02 03:21:31;;;;;;;9.93;4.60;;;12.00;77.50;;;;;;4936862;28;88929;-75
2023/06/02 03:23:58;;;;;;;12.35;4.60;;;12.10;77.70;;;;;;4946846;28;87542;-75
2023/06/02 03:26:25;;;;;;;11.32;4.75;;;12.00;76.90;;;;;;4945937;28;87972;-75
2023/06/02 03:28:52;;;;;;;12.93;4.97;;;12.00;77.20;;;;;;4945893;28;89013;-75
2023/06/02 03:31:17;;;;;;;14.85;5.25;;;12.00;77.20;;;;;;4948084;28;88923;-75
2023/06/02 03:33:43;;;;;;;10.38;4.55;;;11.90;77.50;;;;;;4946880;28;87257;-74
2023/06/02 03:36:09;;;;;;;14.23;4.32;;;11.90;77.40;;;;;;4945636;28;92886;-75
2023/06/02 03:38:35;;;;;;;10.77;4.65;;;11.90;77.40;;;;;;4945812;28;88171;-75
2023/06/02 03:41:00;;;;;;;10.07;4.03;;;11.90;78.40;;;;;;4947225;28;87885;-75
2023/06/02 03:43:26;;;;;;;11.48;4.07;;;11.90;77.50;;;;;;4948230;28;87525;-75
2023/06/02 03:45:52;;;;;;;14.30;4.68;;;11.90;78.00;;;;;;4947212;28;86997;-75
2023/06/02 03:48:17;;;;;;;13.43;5.13;;;11.90;78.00;;;;;;4944587;28;88612;-75
2023/06/02 03:50:43;;;;;;;10.95;5.30;;;11.90;77.40;;;;;;4944457;28;88037;-75
2023/06/02 03:53:08;;;;;;;10.02;4.95;;;11.90;77.60;;;;;;4945712;28;88591;-75
2023/06/02 03:55:34;;;;;;;8.38;4.75;;;11.80;77.80;;;;;;4946042;28;87669;-74
2023/06/02 03:58:00;;;;;;;11.90;5.45;;;11.80;78.20;;;;;;4947672;28;88109;-74
2023/06/02 04:00:25;;;;;;;12.18;5.15;;;11.90;77.80;;;;;;4944395;28;87543;-75
2023/06/02 04:02:51;;;;;;;9.65;5.00;;;11.90;76.80;;;;;;4934021;28;87699;-75
2023/06/02 04:05:16;;;;;;;10.00;4.88;;;11.90;77.30;;;;;;4946098;28;88187;-75
2023/06/02 04:07:42;;;;;;;15.00;5.18;;;11.90;77.80;;;;;;4946192;28;88537;-75
2023/06/02 04:10:08;;;;;;;13.60;4.57;;;11.80;77.10;;;;;;4947335;28;88113;-74
2023/06/02 04:12:34;;;;;;;11.07;5.30;;;11.80;77.30;;;;;;4945987;28;91616;-75
2023/06/02 04:15:01;;;;;;;13.98;5.93;;;11.80;77.80;;;;;;4945300;28;87256;-75
2023/06/02 04:17:27;;;;;;;12.10;5.05;;;11.90;78.30;;;;;;4943539;28;90182;-75
2023/06/02 04:19:52;;;;;;;9.57;5.00;;;11.90;78.30;;;;;;4944359;28;89629;-75
2023/06/02 04:22:19;;;;;;;13.02;4.80;;;11.90;77.90;;;;;;4946015;28;87697;-75
2023/06/02 04:24:45;;;;;;;10.38;4.72;;;11.90;77.80;;;;;;4935064;28;90578;-75
2023/06/02 04:27:11;;;;;;;11.30;5.13;;;11.90;77.50;;;;;;4944535;28;87803;-75
2023/06/02 04:29:37;;;;;;;10.73;5.03;;;11.90;77.00;;;;;;4927126;28;89674;-75
2023/06/02 04:32:03;;;;;;;11.32;5.63;;;11.90;78.10;;;;;;4943503;28;87611;-75
2023/06/02 04:34:31;;;;;;;11.25;5.10;;;11.90;77.40;;;;;;4945995;28;87047;-75
2023/06/02 04:36:57;;;;;;;9.75;4.97;;;11.90;77.70;;;;;;4945031;28;88312;-75
2023/06/02 04:39:23;;;;;;;12.82;5.18;;;11.90;78.00;;;;;;4944409;28;87963;-75
2023/06/02 04:41:49;;;;;;;15.27;5.50;;;11.90;78.00;;;;;;4944924;28;88687;-75
2023/06/02 04:44:16;;;;;;;10.98;4.93;;;11.90;77.30;;;;;;4944670;28;87637;-74
2023/06/02 04:46:42;;;;;;;14.98;5.80;;;11.90;76.70;;;;;;4946164;28;88234;-74
2023/06/02 04:49:09;;;;;;;12.38;5.45;;;11.90;77.30;;;;;;4944513;28;87117;-75
2023/06/02 04:51:35;;;;;;;20.58;5.05;;;11.80;76.90;;;;;;4943603;28;87538;-74
2023/06/02 04:54:01;;;;;;;17.45;6.00;;;11.90;77.10;;;;;;4944044;28;87536;-74
2023/06/02 04:56:27;;;;;;;12.35;4.95;;;11.90;77.50;;;;;;4944567;28;88796;-74
2023/06/02 04:58:53;;;;;;;11.50;4.90;;;11.90;77.30;;;;;;4942978;28;88833;-75
2023/06/02 05:01:19;;;;;;;8.60;3.97;;;12.00;76.50;;;;;;4945662;28;88005;-75
2023/06/02 05:03:45;;;;;;;12.95;4.05;;;12.00;76.30;;;;;;4944892;28;87461;-75
2023/06/02 05:06:10;;;;;;;12.40;4.07;;;12.00;75.80;;;;;;4943293;28;89024;-74
2023/06/02 05:08:36;;;;;;;12.90;4.47;;;12.00;76.10;;;;;;4941584;28;89873;-74
2023/06/02 05:11:02;;;;;;;14.57;5.43;;;12.00;74.60;;;;;;4942893;28;87691;-74
2023/06/02 05:13:29;;;;;;;12.50;5.28;;;12.00;74.70;;;;;;4942393;28;88163;-74
2023/06/02 05:15:55;;;;;;;13.60;3.92;;;12.00;74.60;;;;;;4945090;28;88007;-74
2023/06/02 05:18:21;;;;;;;14.20;3.78;;;12.10;74.10;;;;;;4945360;28;88451;-72
2023/06/02 05:20:47;;;;;;;11.48;3.80;;;12.10;73.10;;;;;;4932479;28;87605;-75
2023/06/02 05:23:13;;;;;;;16.70;3.92;;;12.10;73.60;;;;;;4944020;28;87360;-74
2023/06/02 05:25:40;;;;;;;11.70;4.25;;;12.10;72.50;;;;;;4942050;28;87912;-74
2023/06/02 05:28:06;;;;;;;13.73;3.45;;;12.20;74.20;;;;;;4943088;28;88324;-74
2023/06/02 05:30:31;;;;;;;13.18;3.50;;;12.30;73.20;;;;;;4944559;28;88593;-74
2023/06/02 05:32:57;;;;;;;19.60;4.82;;;12.30;74.50;;;;;;4943284;28;87999;-75
2023/06/02 05:35:23;;;;;;;10.50;3.55;;;12.40;74.10;;;;;;4944096;28;87808;-74
2023/06/02 05:37:48;;;;;;;14.35;3.88;;;12.40;74.00;;;;;;4940798;28;87987;-74
2023/06/02 05:40:14;;;;;;;10.98;3.28;;;12.40;72.30;;;;;;4943213;28;87923;-75
2023/06/02 05:42:39;;;;;;;16.33;3.70;;;12.40;73.00;;;;;;4942310;28;87794;-75
2023/06/02 05:45:06;;;;;;;9.15;3.40;;;12.40;73.50;;;;;;4944329;28;87981;-75
2023/06/02 05:47:32;;;;;;;15.13;4.03;;;12.40;72.70;;;;;;4944463;28;87797;-75
2023/06/02 05:49:58;;;;;;;15.10;4.35;;;12.50;73.40;;;;;;4942405;28;87747;-74
2023/06/02 05:52:24;;;;;;;11.85;3.17;;;12.50;73.20;;;;;;4941507;28;88214;-74
2023/06/02 05:54:50;;;;;;;11.77;3.92;;;12.50;72.80;;;;;;4943212;28;89214;-75
2023/06/02 05:57:17;;;;;;;13.07;4.30;;;12.50;73.40;;;;;;4944921;28;90261;-75
2023/06/02 05:59:43;;;;;;;16.33;3.97;;;12.50;73.30;;;;;;4945263;28;87830;-74
2023/06/02 06:02:09;;;;;;;15.05;3.67;;;12.60;72.30;;;;;;4944486;28;87918;-74
2023/06/02 06:04:35;;;;;;;20.33;3.92;;;12.60;73.40;;;;;;4941150;28;88000;-74
2023/06/02 06:07:01;;;;;;;10.80;3.97;;;12.50;71.80;;;;;;4944826;28;87603;-74
2023/06/02 06:09:26;;;;;;;12.63;4.22;;;12.50;72.50;;;;;;4941985;28;87555;-75
2023/06/02 06:11:52;;;;;;;12.95;3.92;;;12.50;72.40;;;;;;4942759;28;86896;-74
2023/06/02 06:14:18;;;;;;;19.30;4.57;;;12.50;72.40;;;;;;4943050;28;88355;-75
2023/06/02 06:16:43;;;;;;;12.20;4.18;;;12.50;72.10;;;;;;4940074;28;88408;-74
2023/06/02 06:19:10;;;;;;;11.13;3.92;;;12.50;73.00;;;;;;4944019;28;88647;-75
2023/06/02 06:21:36;;;;;;;17.55;3.80;;;12.50;72.90;;;;;;4942097;28;87961;-75
2023/06/02 06:26:35;;;;;;;12.18;4.32;;;12.70;73.10;;;;;;4943689;28;87976;-76
2023/06/02 06:29:00;;;;;;;15.15;4.40;;;12.80;72.30;;;;;;4943300;28;87776;-74
2023/06/02 06:31:26;;;;;;;11.38;3.95;;;12.90;73.10;;;;;;4943153;28;87860;-75
2023/06/02 06:33:52;;;;;;;19.05;4.47;;;13.00;72.90;;;;;;4944936;28;90190;-75
2023/06/02 06:36:18;;;;;;;18.98;4.78;;;13.10;72.20;;;;;;4945328;28;87550;-78
2023/06/02 06:38:43;;;;;;;16.30;4.05;;;13.10;73.10;;;;;;4947552;28;87903;-78
2023/06/02 06:41:09;;;;;;;14.52;3.80;;;13.20;72.30;;;;;;4952091;28;87601;-80
2023/06/02 06:43:35;;;;;;;13.70;3.42;;;13.30;71.40;;;;;;4937902;28;92415;-80
2023/06/02 06:46:00;;;;;;;17.25;4.03;;;13.20;70.90;;;;;;4949674;28;89582;-79
2023/06/02 06:48:27;;;;;;;13.30;3.95;;;13.30;72.30;;;;;;4947726;28;87695;-80
2023/06/02 06:50:53;;;;;;;20.13;3.95;;;13.40;71.20;;;;;;4929302;28;90340;-78
2023/06/02 06:53:18;;;;;;;19.70;3.85;;;13.40;70.60;;;;;;4946977;28;88668;-79
2023/06/02 06:55:45;;;;;;;10.55;3.80;;;13.50;70.90;;;;;;4946039;28;87299;-79
2023/06/02 06:58:11;;;;;;;19.52;4.38;;;13.60;70.70;;;;;;4948068;28;87448;-79
2023/06/02 07:00:37;;;;;;;13.63;4.15;;;13.70;70.80;;;;;;4953956;28;87269;-81
2023/06/02 07:03:03;;;;;;;11.95;3.97;;;13.80;69.60;;;;;;4956954;28;89643;-80
2023/06/02 07:12:15;;;;;;;15.57;4.40;;;14.00;70.10;;;;;;4962954;28;86144;-82
2023/06/02 07:20:45;;;;;;;14.88;4.13;;;14.20;68.20;;;;;;5718279;22;88891;-80
2023/06/02 07:30:09;;;;;;;17.92;4.00;;;14.00;68.30;;;;;;5089108;22;88575;-84
2023/06/02 07:41:27;;;;;;;12.13;3.97;;;14.40;66.70;;;;;;5771881;22;89575;-79
2023/06/02 07:46:35;;;;;;;11.45;3.72;;;14.40;66.50;;;;;;5705240;22;88530;-81
2023/06/02 07:49:01;;;;;;;15.70;4.07;;;14.40;65.40;;;;;;4951928;28;94336;-78
2023/06/02 07:51:27;;;;;;;14.65;3.72;;;14.60;66.60;;;;;;4945501;28;88593;-80
2023/06/02 07:53:53;;;;;;;11.98;3.63;;;14.70;65.40;;;;;;4953234;28;87505;-81
2023/06/02 07:56:18;;;;;;;13.93;4.32;;;14.90;65.60;;;;;;4952209;28;86829;-81
2023/06/02 07:58:47;;;;;;;13.55;3.90;;;15.00;65.00;;;;;;4954146;28;87187;-81
2023/06/02 08:01:13;;;;;;;12.75;3.65;;;15.10;64.30;;;;;;4959029;28;88544;-82
2023/06/02 08:03:40;;;;;;;13.25;4.53;;;15.10;64.40;;;;;;4958513;28;88695;-81
2023/06/02 08:06:06;;;;;;;15.52;3.95;;;15.20;64.10;;;;;;4961069;28;87870;-81
2023/06/02 08:08:32;;;;;;;11.63;3.70;;;15.40;63.10;;;;;;4959138;28;87687;-82
2023/06/02 08:10:58;;;;;;;10.77;3.58;;;15.50;62.60;;;;;;4958301;28;87885;-81
2023/06/02 08:13:23;;;;;;;13.00;3.83;;;15.50;63.00;;;;;;4955785;28;87642;-82
2023/06/02 08:15:49;;;;;;;13.23;5.13;;;15.60;61.80;;;;;;4956292;28;94399;-82
2023/06/02 08:18:15;;;;;;;14.90;4.15;;;15.70;62.20;;;;;;4955810;28;88590;-81
2023/06/02 08:20:44;;;;;;;17.05;4.20;;;15.60;61.20;;;;;;4957146;28;88394;-80
2023/06/02 08:23:10;;;;;;;13.05;3.45;;;15.60;62.00;;;;;;4955167;28;87633;-81
2023/06/02 08:25:38;;;;;;;12.05;4.50;;;15.70;62.30;;;;;;4953678;28;90632;-82
2023/06/02 08:28:06;;;;;;;8.60;3.33;;;15.80;61.60;;;;;;4953086;28;91453;-81
2023/06/02 08:30:42;;;;;;;12.80;3.42;;;16.00;62.40;;;;;;4952296;28;89294;-88
2023/06/02 08:33:08;;;;;;;13.90;3.60;;;16.20;60.90;;;;;;4957656;28;87482;-88
2023/06/02 08:35:41;;;;;;;12.73;3.83;;;16.30;60.00;;;;;;4948830;28;89963;-88
2023/06/02 08:38:07;;;;;;;12.68;3.85;;;16.50;60.80;;;;;;4949983;28;88790;-89
2023/06/02 08:40:38;;;;;;;11.73;3.70;;;16.80;59.60;;;;;;4950681;28;89953;-88
2023/06/02 08:43:12;;;;;;;9.25;3.28;;;17.00;59.40;;;;;;4950939;28;87209;-88
2023/06/02 08:45:49;;;;;;;12.85;4.68;;;17.40;59.90;;;;;;4949558;28;90240;-92
2023/06/02 08:48:17;;;;;;;9.65;3.92;;;17.60;58.30;;;;;;4948400;28;91574;-88
2023/06/02 08:50:51;;;;;;;11.75;3.83;;;17.80;57.10;;;;;;4972572;28;89480;-88
2023/06/02 08:53:17;;;;;;;11.02;3.42;;;17.70;56.40;;;;;;4949642;28;88483;-88
2023/06/02 08:55:43;;;;;;;13.20;4.30;;;17.60;58.10;;;;;;4949206;28;90442;-88
2023/06/02 08:58:10;;;;;;;13.55;4.38;;;17.70;57.90;;;;;;4957371;28;90138;-89
2023/06/02 09:00:36;;;;;;;9.18;4.25;;;17.90;57.60;;;;;;4949230;28;91169;-90
2023/06/02 09:03:02;;;;;;;8.90;3.42;;;17.80;57.80;;;;;;4956298;28;87722;-89
2023/06/02 09:05:28;;;;;;;11.50;4.10;;;17.90;56.60;;;;;;4946696;28;89375;-89
2023/06/02 09:08:11;;;;;;;11.32;4.18;;;17.80;56.90;;;;;;4947204;28;92585;-89
2023/06/02 09:10:41;;;;;;;10.15;4.10;;;17.90;57.30;;;;;;4955668;28;91712;-87
2023/06/02 09:13:27;;;;;;;11.80;4.10;;;17.90;57.20;;;;;;4946961;28;87720;-90
2023/06/02 09:16:01;;;;;;;14.05;4.47;;;18.00;55.90;;;;;;4950026;28;94797;-92
2023/06/02 09:18:28;;;;;;;12.98;4.15;;;17.90;56.10;;;;;;4948424;28;91579;-86
2023/06/02 09:20:54;;;;;;;14.10;4.75;;;17.90;56.60;;;;;;4947072;28;91101;-88
2023/06/02 09:23:20;;;;;;;12.48;4.60;;;18.10;56.50;;;;;;4948555;28;87536;-85
2023/06/02 09:25:46;;;;;;;13.07;4.40;;;18.20;55.90;;;;;;4949075;28;87542;-84
2023/06/02 09:28:12;;;;;;;12.15;4.22;;;18.30;56.00;;;;;;4948407;28;91607;-85
2023/06/02 09:30:39;;;;;;;13.30;4.60;;;18.60;56.30;;;;;;4946084;28;89860;-84
2023/06/02 09:33:12;;;;;;;13.20;4.15;;;18.60;54.70;;;;;;4956077;28;87931;-87
2023/06/02 09:35:44;;;;;;;10.75;3.72;;;18.50;55.30;;;;;;4947848;28;90581;-88
2023/06/02 09:38:12;;;;;;;11.93;3.75;;;19.00;56.90;;;;;;4945628;28;91811;-88
2023/06/02 09:40:40;;;;;;;12.55;4.03;;;19.30;55.00;;;;;;4946480;28;90028;-86
2023/06/02 09:43:07;;;;;;;9.68;3.83;;;19.40;52.90;;;;;;4948962;28;88435;-85
2023/06/02 09:45:54;;;;;;;12.82;4.15;;;19.40;54.00;;;;;;4945974;28;89426;-85
2023/06/02 09:48:22;;;;;;;10.25;4.38;;;19.50;55.10;;;;;;4945970;28;90562;-85
2023/06/02 09:50:49;;;;;;;8.55;4.60;;;19.60;54.20;;;;;;4947659;28;89415;-85
2023/06/02 09:53:17;;;;;;;13.70;4.57;;;20.20;54.70;;;;;;4948324;28;87925;-84
2023/06/02 09:55:45;;;;;;;12.35;4.35;;;20.70;52.60;;;;;;4946203;28;89963;-84
2023/06/02 09:58:11;;;;;;;12.13;4.68;;;20.90;51.50;;;;;;4949877;28;90768;-85
2023/06/02 10:00:37;;;;;;;11.63;4.35;;;21.20;51.90;;;;;;4955723;28;91205;-84
2023/06/02 10:03:07;;;;;;;10.88;4.70;;;21.20;51.20;;;;;;4946326;28;87764;-85
2023/06/02 10:05:37;;;;;;;9.68;4.28;;;21.00;51.00;;;;;;4945663;28;90748;-86
2023/06/02 10:08:18;;;;;;;12.68;4.53;;;20.80;51.80;;;;;;4954476;28;91361;-86
2023/06/02 10:10:59;;;;;;;10.98;4.35;;;20.70;51.40;;;;;;4954853;28;91126;-85
2023/06/02 10:13:46;;;;;;;11.85;4.10;;;20.60;51.30;;;;;;4955687;28;87547;-87
2023/06/02 10:16:28;;;;;;;10.48;4.05;;;20.40;50.70;;;;;;4947493;28;90736;-86
2023/06/02 10:19:20;;;;;;;9.00;4.35;;;20.00;52.30;;;;;;4954956;28;96389;-86
2023/06/02 10:22:10;;;;;;;9.43;3.80;;;19.90;52.50;;;;;;4947569;28;90982;-86
2023/06/02 10:24:54;;;;;;;10.95;3.90;;;20.10;53.20;;;;;;4954400;28;87842;-86
2023/06/02 10:27:36;;;;;;;15.13;4.10;;;20.50;52.10;;;;;;4954706;28;90531;-85
2023/06/02 10:30:02;;;;;;;13.68;4.90;;;20.50;51.40;;;;;;4947394;28;88219;-89
2023/06/02 10:32:33;;;;;;;12.40;4.13;;;20.50;51.80;;;;;;4945090;28;91913;-87
2023/06/02 10:35:00;;;;;;;12.55;4.88;;;20.50;51.60;;;;;;4947345;28;96194;-86
2023/06/02 10:37:26;;;;;;;9.43;3.33;;;20.60;50.70;;;;;;4954800;28;90418;-85
2023/06/02 10:39:54;;;;;;;9.70;3.17;;;21.00;51.70;;;;;;4948443;28;91437;-86
2023/06/02 10:42:58;;;;;;;9.40;3.50;;;21.60;51.90;;;;;;4946459;28;91170;-87
2023/06/02 10:45:24;;;;;;;;;;;21.80;47.60;;;;;;4954864;28;88320;-86
2023/06/02 10:47:50;;;;;;;12.50;3.88;;;21.90;49.60;;;;;;4955808;28;89706;-86
2023/06/02 10:50:21;;;;;;;8.50;3.53;;;22.20;51.10;;;;;;4947085;28;88568;-86
2023/06/02 10:52:59;;;;;;;11.80;3.47;;;22.60;50.30;;;;;;4945867;28;90210;-84
2023/06/02 10:55:27;;;;;;;8.45;3.17;;;23.30;48.80;;;;;;4946058;28;87192;-84
2023/06/02 10:58:12;;;;;;;6.70;3.00;;;23.60;47.00;;;;;;4947155;28;89158;-85
2023/06/02 11:00:43;;;;;;;9.07;3.13;;;24.00;46.10;;;;;;4944856;28;91327;-85
2023/06/02 11:03:14;;;;;;;11.57;3.65;;;24.20;46.60;;;;;;4953661;28;92052;-85
2023/06/02 11:05:40;;;;;;;11.35;3.15;;;24.50;45.30;;;;;;4954088;28;87893;-85
2023/06/02 11:08:15;;;;;;;9.15;3.33;;;24.70;45.00;;;;;;4946200;28;89235;-84
2023/06/02 11:10:52;;;;;;;10.60;2.90;;;24.80;42.90;;;;;;4946967;28;91346;-85
2023/06/02 11:13:19;;;;;;;7.95;2.83;;;24.70;46.30;;;;;;4946210;28;91402;-86
2023/06/02 11:15:53;;;;;;;10.95;3.42;;;24.80;44.60;;;;;;4945343;28;87623;-85
2023/06/02 11:18:22;;;;;;;7.50;3.00;;;25.10;45.50;;;;;;4946373;28;89755;-85
2023/06/02 11:20:50;;;;;;;10.13;2.72;;;25.30;42.60;;;;;;4953299;28;91462;-85
2023/06/02 11:23:19;;;;;;;9.23;2.80;;;24.60;43.80;;;;;;4946189;28;90602;-85
2023/06/02 11:25:46;;;;;;;11.15;3.22;;;24.80;45.40;;;;;;4944304;28;88622;-85
2023/06/02 11:28:22;;;;;;;8.90;2.83;;;25.00;45.00;;;;;;4945351;28;88994;-85
2023/06/02 11:31:07;;;;;;;10.55;3.22;;;25.10;43.70;;;;;;4945285;28;91693;-83
2023/06/02 11:33:34;;;;;;;9.45;3.08;;;25.50;43.20;;;;;;4947295;28;91215;-85
2023/06/02 11:36:03;;;;;;;13.68;3.30;;;25.30;43.30;;;;;;4947370;28;87788;-84
2023/06/02 11:38:33;;;;;;;10.70;3.40;;;24.90;43.10;;;;;;4949138;28;90380;-84
2023/06/02 11:41:09;;;;;;;12.63;3.33;;;25.00;45.10;;;;;;4964649;28;90789;-84
2023/06/02 11:43:36;;;;;;;7.95;2.67;;;25.40;43.40;;;;;;4948537;28;91452;-85
2023/06/02 11:46:09;;;;;;;8.75;3.13;;;25.10;42.20;;;;;;4949596;28;88059;-86
2023/06/02 11:48:38;;;;;;;14.65;4.15;;;25.10;43.50;;;;;;4948792;28;90177;-85
2023/06/02 11:51:05;;;;;;;12.93;3.38;;;25.10;44.90;;;;;;4948919;28;90963;-84
2023/06/02 11:53:31;;;;;;;8.02;3.20;;;25.30;43.10;;;;;;4949814;28;92788;-85
2023/06/02 11:55:56;;;;;;;10.40;2.72;;;25.60;43.60;;;;;;4949869;28;87524;-85
2023/06/02 11:58:26;;;;;;;10.65;2.97;;;25.60;41.60;;;;;;4950083;28;89951;-84
2023/06/02 12:00:52;;;;;;;8.77;3.45;;;25.10;41.70;;;;;;4956208;28;94812;-82
2023/06/02 12:03:18;;;;;;;11.30;3.92;;;25.00;43.00;;;;;;4947469;28;91864;-82
2023/06/02 12:05:47;;;;;;;15.55;4.40;;;25.00;42.70;;;;;;4947672;28;88333;-82
2023/06/02 12:08:22;;;;;;;17.95;3.53;;;25.20;41.90;;;;;;4956226;28;90042;-82
2023/06/02 12:10:48;;;;;;;12.77;3.42;;;25.60;42.60;;;;;;4949804;28;89035;-83
2023/06/02 12:13:27;;;;;;;10.50;3.45;;;25.90;41.20;;;;;;4949742;28;88728;-82
2023/06/02 12:15:54;;;;;;;10.88;3.25;;;25.60;40.90;;;;;;4947049;28;88102;-83
2023/06/02 12:18:33;;;;;;;8.43;2.70;;;25.30;42.90;;;;;;4972802;28;89970;-82
2023/06/02 12:20:59;;;;;;;7.75;2.70;;;25.80;41.70;;;;;;4948232;28;91498;-81
2023/06/02 12:23:44;;;;;;;9.20;2.80;;;26.40;43.20;;;;;;4956144;28;90450;-82
2023/06/02 12:26:09;;;;;;;9.95;3.03;;;27.00;40.90;;;;;;4947726;28;87351;-82
2023/06/02 12:28:35;;;;;;;7.47;2.40;;;27.20;40.40;;;;;;4949694;28;87071;-82
2023/06/02 12:31:01;;;;;;;8.45;2.97;;;27.20;40.50;;;;;;4949469;28;87764;-82
2023/06/02 12:33:26;;;;;;;8.38;2.78;;;27.40;39.90;;;;;;4948296;28;91648;-82
2023/06/02 12:35:52;;;;;;;7.78;2.67;;;27.40;39.30;;;;;;4945892;28;87766;-82
2023/06/02 12:38:17;;;;;;;11.90;3.03;;;27.40;40.20;;;;;;4947814;28;88081;-83
2023/06/02 12:40:43;;;;;;;10.02;2.75;;;27.90;40.40;;;;;;4946331;28;89245;-81
2023/06/02 12:43:09;;;;;;;13.38;3.33;;;28.50;39.80;;;;;;4948297;28;88469;-80
2023/06/02 12:45:35;;;;;;;10.80;2.38;;;28.70;39.40;;;;;;4954889;28;87497;-80
2023/06/02 12:48:02;;;;;;;9.75;2.67;;;28.90;39.10;;;;;;4947050;28;87656;-78
2023/06/02 12:50:28;;;;;;;11.07;2.63;;;29.30;39.80;;;;;;4946720;28;91563;-78
2023/06/02 12:52:54;;;;;;;8.48;2.42;;;29.40;39.90;;;;;;4947500;28;89074;-78
2023/06/02 12:55:20;;;;;;;8.57;3.05;;;29.40;38.20;;;;;;4947406;28;87806;-78
2023/06/02 12:57:46;;;;;;;8.30;3.08;;;29.30;39.50;;;;;;4947744;28;86792;-78
2023/06/02 13:00:13;;;;;;;14.23;3.42;;;29.60;38.90;;;;;;4948633;28;88527;-78
2023/06/02 13:02:43;;;;;;;8.18;2.58;;;29.40;36.40;;;;;;4946674;28;91703;-78
2023/06/02 13:05:09;;;;;;;9.40;2.50;;;29.40;38.30;;;;;;4948999;28;88835;-76
2023/06/02 13:07:39;;;;;;;11.43;2.80;;;29.40;38.80;;;;;;4947886;28;87362;-78
2023/06/02 13:10:07;;;;;;;11.45;2.95;;;29.60;38.10;;;;;;4947054;28;91417;-78
2023/06/02 13:12:33;;;;;;;11.63;3.80;;;29.70;36.00;;;;;;4948233;28;89036;-78
2023/06/02 13:15:00;;;;;;;13.20;3.83;;;29.60;35.60;;;;;;4945792;28;87554;-79
2023/06/02 13:17:27;;;;;;;9.18;3.05;;;29.00;37.30;;;;;;4946788;28;89008;-78
2023/06/02 13:19:53;;;;;;;13.07;3.28;;;29.00;38.10;;;;;;4946881;28;87715;-79